createdAt,value
2023-02-12T00:01:27.210Z,101667.00
2023-02-12T00:03:54.708Z,101672.00
2023-02-12T00:06:22.681Z,101668.00
2023-02-12T00:08:52.362Z,101682.00
2023-02-12T00:11:23.982Z,101699.00
2023-02-12T00:13:53.642Z,101715.00
2023-02-12T00:16:25.910Z,101713.00
2023-02-12T00:18:55.928Z,101721.00
2023-02-12T00:21:24.104Z,101718.00
2023-02-12T00:23:51.585Z,101729.00
2023-02-12T00:26:22.383Z,101730.00
2023-02-12T00:28:50.473Z,101737.00
2023-02-12T00:31:25.106Z,101730.00
2023-02-12T00:33:52.763Z,101734.00
2023-02-12T00:36:24.095Z,101742.00
2023-02-12T00:38:57.293Z,101738.00
2023-02-12T00:41:25.392Z,101732.00
2023-02-12T00:43:52.853Z,101741.00
2023-02-12T00:46:21.042Z,101738.00
2023-02-12T00:48:48.460Z,101747.00
2023-02-12T00:51:15.962Z,101731.00
2023-02-12T00:53:43.528Z,101734.00
2023-02-12T00:56:10.535Z,101748.00
2023-02-12T00:58:37.883Z,101747.00
2023-02-12T01:01:05.319Z,101748.00
2023-02-12T01:03:32.383Z,101751.00
2023-02-12T01:05:59.744Z,101760.00
2023-02-12T01:08:27.500Z,101750.00
2023-02-12T01:11:04.802Z,101765.00
2023-02-12T01:13:33.795Z,101751.00
2023-02-12T01:16:19.419Z,101783.00
2023-02-12T01:18:48.293Z,101775.00
2023-02-12T01:21:23.184Z,101780.00
2023-02-12T01:23:50.254Z,101782.00
2023-02-12T01:26:20.074Z,101789.00
2023-02-12T01:28:52.269Z,101777.00
2023-02-12T01:31:24.174Z,101786.00
2023-02-12T01:33:54.850Z,101781.00
2023-02-12T01:36:22.805Z,101718.00
2023-02-12T01:38:50.761Z,101790.00
2023-02-12T01:41:28.766Z,101793.00
2023-02-12T01:44:13.428Z,101806.00
2023-02-12T01:46:41.819Z,101805.00
2023-02-12T01:49:22.887Z,101803.00
2023-02-12T01:52:00.659Z,101820.00
2023-02-12T01:54:31.338Z,101823.00
2023-02-12T01:57:02.202Z,101816.00
2023-02-12T01:59:31.178Z,101825.00
2023-02-12T02:01:58.427Z,101822.00
2023-02-12T02:04:32.830Z,101823.00
2023-02-12T02:07:04.175Z,101819.00
2023-02-12T02:09:36.448Z,101831.00
2023-02-12T02:12:22.492Z,101823.00
2023-02-12T02:14:53.569Z,101823.00
2023-02-12T02:17:50.622Z,101827.00
2023-02-12T02:20:54.283Z,101833.00
2023-02-12T02:24:04.962Z,101827.00
2023-02-12T02:27:13.144Z,101825.00
2023-02-12T02:30:19.695Z,101827.00
2023-02-12T02:33:27.377Z,101839.00
2023-02-12T02:36:41.424Z,101838.00
2023-02-12T02:39:24.625Z,101834.00
2023-02-12T02:42:03.328Z,101842.00
2023-02-12T02:44:43.683Z,101840.00
2023-02-12T02:47:14.789Z,101845.00
2023-02-12T02:50:02.814Z,101845.00
2023-02-12T02:52:43.607Z,101855.00
2023-02-12T02:55:15.489Z,101857.00
2023-02-12T02:57:53.124Z,101854.00
2023-02-12T03:00:59.018Z,101860.00
2023-02-12T03:03:53.292Z,101850.00
2023-02-12T03:06:51.445Z,101851.00
2023-02-12T03:09:31.478Z,101855.00
2023-02-12T03:12:09.604Z,101834.00
2023-02-12T03:14:54.519Z,101849.00
2023-02-12T03:17:30.633Z,101872.00
2023-02-12T03:20:07.771Z,101853.00
2023-02-12T03:22:40.709Z,101865.00
2023-02-12T03:25:24.450Z,101869.00
2023-02-12T03:28:06.998Z,101871.00
2023-02-12T03:31:12.216Z,101889.00
2023-02-12T03:34:19.686Z,101884.00
2023-02-12T03:37:14.211Z,101884.00
2023-02-12T03:40:17.356Z,101889.00
2023-02-12T03:43:09.114Z,101891.00
2023-02-12T03:45:45.280Z,101892.00
2023-02-12T03:48:30.489Z,101899.00
2023-02-12T03:51:10.214Z,101900.00
2023-02-12T03:53:37.713Z,101892.00
2023-02-12T03:56:20.170Z,101910.00
2023-02-12T03:58:47.324Z,101908.00
2023-02-12T04:01:15.728Z,101908.00
2023-02-12T04:03:42.953Z,101908.00
2023-02-12T04:06:25.811Z,101900.00
2023-02-12T04:08:57.120Z,101901.00
2023-02-12T04:11:30.240Z,101915.00
2023-02-12T04:14:47.903Z,101913.00
2023-02-12T04:17:40.374Z,101916.00
2023-02-12T04:20:33.358Z,101914.00
2023-02-12T04:23:24.310Z,101922.00
2023-02-12T04:25:57.423Z,101923.00
2023-02-12T04:28:56.647Z,101926.00
2023-02-12T04:31:41.045Z,101942.00
2023-02-12T04:34:19.016Z,101925.00
2023-02-12T04:37:07.253Z,101936.00
2023-02-12T04:39:39.739Z,101941.00
2023-02-12T04:42:06.957Z,101934.00
2023-02-12T04:44:38.149Z,101923.00
2023-02-12T04:47:05.278Z,101943.00
2023-02-12T04:49:32.463Z,101938.00
2023-02-12T04:51:59.980Z,101939.00
2023-02-12T04:54:27.147Z,101939.00
2023-02-12T04:56:54.366Z,101914.00
2023-02-12T04:59:21.803Z,101929.00
2023-02-12T05:01:48.997Z,101932.00
2023-02-12T05:04:17.868Z,101938.00
2023-02-12T05:06:46.701Z,101942.00
2023-02-12T05:09:20.309Z,101951.00
2023-02-12T05:11:47.648Z,101953.00
2023-02-12T05:14:16.221Z,101946.00
2023-02-12T05:16:44.089Z,101942.00
2023-02-12T05:19:12.390Z,101938.00
2023-02-12T05:21:39.745Z,101947.00
2023-02-12T05:24:07.511Z,101950.00
2023-02-12T05:26:35.511Z,101963.00
2023-02-12T05:29:03.633Z,101966.00
2023-02-12T05:31:31.394Z,101966.00
2023-02-12T05:33:58.487Z,101962.00
2023-02-12T05:36:26.258Z,101968.00
2023-02-12T05:38:58.091Z,101960.00
2023-02-12T05:41:25.447Z,101955.00
2023-02-12T05:43:53.199Z,101966.00
2023-02-12T05:46:22.093Z,101969.00
2023-02-12T05:48:49.460Z,101976.00
2023-02-12T05:51:23.117Z,101972.00
2023-02-12T05:54:00.403Z,101973.00
2023-02-12T05:56:31.340Z,101965.00
2023-02-12T05:59:06.210Z,101982.00
2023-02-12T06:01:41.171Z,101989.00
2023-02-12T06:04:18.409Z,101961.00
2023-02-12T06:06:46.436Z,101989.00
2023-02-12T06:09:14.398Z,101983.00
2023-02-12T06:11:42.649Z,101987.00
2023-02-12T06:14:15.722Z,101997.00
2023-02-12T06:16:47.016Z,102002.00
2023-02-12T06:19:14.356Z,101997.00
2023-02-12T06:21:42.064Z,102005.00
2023-02-12T06:24:12.661Z,101995.00
2023-02-12T06:26:39.993Z,102008.00
2023-02-12T06:29:07.306Z,102003.00
2023-02-12T06:31:37.130Z,101994.00
2023-02-12T06:34:08.246Z,102010.00
2023-02-12T06:36:39.876Z,102011.00
2023-02-12T06:39:08.134Z,102023.00
2023-02-12T06:41:35.773Z,102015.00
2023-02-12T06:44:03.800Z,102025.00
2023-02-12T06:46:31.468Z,102019.00
2023-02-12T06:49:01.054Z,102033.00
2023-02-12T06:51:29.643Z,102025.00
2023-02-12T06:53:58.126Z,102027.00
2023-02-12T06:56:27.018Z,102028.00
2023-02-12T06:58:58.558Z,102032.00
2023-02-12T07:01:29.563Z,102030.00
2023-02-12T07:04:05.079Z,102029.00
2023-02-12T07:06:35.825Z,102052.00
2023-02-12T07:09:05.307Z,102043.00
2023-02-12T07:11:38.164Z,102045.00
2023-02-12T07:14:07.474Z,102053.00
2023-02-12T07:16:34.780Z,102048.00
2023-02-12T07:19:02.097Z,102050.00
2023-02-12T07:21:29.245Z,102045.00
2023-02-12T07:23:56.392Z,102053.00
2023-02-12T07:26:23.850Z,102053.00
2023-02-12T07:28:52.309Z,101990.00
2023-02-12T07:31:23.637Z,102060.00
2023-02-12T07:33:55.954Z,102054.00
2023-02-12T07:36:25.713Z,102048.00
2023-02-12T07:38:54.298Z,102058.00
2023-02-12T07:41:34.948Z,102054.00
2023-02-12T07:44:10.300Z,102060.00
2023-02-12T07:46:47.998Z,102058.00
2023-02-12T07:49:23.476Z,102068.00
2023-02-12T07:51:50.876Z,102067.00
2023-02-12T07:54:18.299Z,102068.00
2023-02-12T07:56:47.164Z,102080.00
2023-02-12T07:59:17.857Z,102081.00
2023-02-12T08:01:52.853Z,102071.00
2023-02-12T08:04:23.352Z,102072.00
2023-02-12T08:06:54.601Z,102085.00
2023-02-12T08:09:26.626Z,102069.00
2023-02-12T08:11:54.594Z,102070.00
2023-02-12T08:14:22.953Z,102060.00
2023-02-12T08:16:51.356Z,102064.00
2023-02-12T08:19:22.704Z,102071.00
2023-02-12T08:21:54.257Z,102073.00
2023-02-12T08:24:24.266Z,102075.00
2023-02-12T08:26:52.075Z,102074.00
2023-02-12T08:29:26.226Z,102082.00
2023-02-12T08:32:01.308Z,102073.00
2023-02-12T08:34:35.166Z,102083.00
2023-02-12T08:37:05.743Z,102072.00
2023-02-12T08:39:32.924Z,102069.00
2023-02-12T08:42:01.805Z,102066.00
2023-02-12T08:44:29.517Z,102074.00
2023-02-12T08:46:56.928Z,102086.00
2023-02-12T08:49:28.582Z,102081.00
2023-02-12T08:51:58.578Z,102081.00
2023-02-12T08:54:29.440Z,102084.00
2023-02-12T08:57:00.262Z,102096.00
2023-02-12T08:59:28.262Z,102094.00
2023-02-12T09:01:56.954Z,102102.00
2023-02-12T09:04:27.993Z,102087.00
2023-02-12T09:06:56.180Z,102081.00
2023-02-12T09:09:25.617Z,102094.00
2023-02-12T09:11:52.811Z,102083.00
2023-02-12T09:14:24.686Z,102093.00
2023-02-12T09:16:53.685Z,102078.00
2023-02-12T09:19:21.009Z,102095.00
2023-02-12T09:21:55.582Z,102101.00
2023-02-12T09:24:24.868Z,102101.00
2023-02-12T09:26:51.944Z,102088.00
2023-02-12T09:29:19.225Z,102095.00
2023-02-12T09:31:46.759Z,102090.00
2023-02-12T09:34:14.008Z,102089.00
2023-02-12T09:36:41.428Z,102085.00
2023-02-12T09:39:09.271Z,102089.00
2023-02-12T09:42:15.311Z,102093.00
2023-02-12T09:44:51.210Z,102086.00
2023-02-12T09:47:55.232Z,102081.00
2023-02-12T09:50:51.668Z,102078.00
2023-02-12T09:53:24.450Z,102088.00
2023-02-12T09:55:51.563Z,102091.00
2023-02-12T09:58:38.504Z,102093.00
2023-02-12T10:01:22.119Z,102093.00
2023-02-12T10:03:52.693Z,102090.00
2023-02-12T10:06:25.563Z,102086.00
2023-02-12T10:09:44.623Z,102091.00
2023-02-12T10:12:36.662Z,102091.00
2023-02-12T10:15:12.952Z,102085.00
2023-02-12T10:18:07.682Z,102079.00
2023-02-12T10:21:27.407Z,102074.00
2023-02-12T10:24:23.950Z,102066.00
2023-02-12T10:26:58.262Z,102071.00
2023-02-12T10:29:34.188Z,102074.00
2023-02-12T10:32:21.685Z,102074.00
2023-02-12T10:34:50.958Z,102069.00
2023-02-12T10:37:39.878Z,102070.00
2023-02-12T10:40:32.793Z,102074.00
2023-02-12T10:43:02.184Z,102074.00
2023-02-12T10:45:39.886Z,102072.00
2023-02-12T10:48:37.201Z,102066.00
2023-02-12T10:51:10.268Z,102071.00
2023-02-12T10:53:41.067Z,102078.00
2023-02-12T10:56:25.738Z,102060.00
2023-02-12T10:58:57.085Z,102057.00
2023-02-12T11:01:38.838Z,102065.00
2023-02-12T11:04:29.963Z,102072.00
2023-02-12T11:07:06.423Z,102064.00
2023-02-12T11:09:45.669Z,102059.00
2023-02-12T11:12:27.789Z,102060.00
2023-02-12T11:15:00.460Z,102032.00
2023-02-12T11:17:40.406Z,102058.00
2023-02-12T11:20:16.656Z,102050.00
2023-02-12T11:23:10.636Z,102051.00
2023-02-12T11:25:38.414Z,102052.00
2023-02-12T11:28:19.593Z,102039.00
2023-02-12T11:31:18.946Z,102040.00
2023-02-12T11:33:46.055Z,102031.00
2023-02-12T11:36:25.402Z,102027.00
2023-02-12T11:38:59.005Z,102011.00
2023-02-12T11:41:36.439Z,102019.00
2023-02-12T11:44:21.677Z,102024.00
2023-02-12T11:46:54.474Z,101999.00
2023-02-12T11:49:29.511Z,102019.00
2023-02-12T11:52:00.262Z,102023.00
2023-02-12T11:54:33.556Z,102017.00
2023-02-12T11:57:01.098Z,102014.00
2023-02-12T11:59:46.082Z,102005.00
2023-02-12T12:02:25.906Z,102011.00
2023-02-12T12:05:07.991Z,102008.00
2023-02-12T12:07:41.462Z,102003.00
2023-02-12T12:10:18.656Z,102012.00
2023-02-12T12:12:53.932Z,102014.00
2023-02-12T12:15:49.222Z,102015.00
2023-02-12T12:18:48.472Z,101994.00
2023-02-12T12:21:34.019Z,102010.00
2023-02-12T12:24:26.369Z,102008.00
2023-02-12T12:27:14.426Z,102016.00
2023-02-12T12:30:06.848Z,102005.00
2023-02-12T12:32:40.660Z,101990.00
2023-02-12T12:35:18.052Z,101995.00
2023-02-12T12:38:32.357Z,101977.00
2023-02-12T12:41:42.961Z,101977.00
2023-02-12T12:45:05.445Z,101970.00
2023-02-12T12:47:48.238Z,101968.00
2023-02-12T12:50:53.084Z,101958.00
2023-02-12T12:53:25.985Z,101957.00
2023-02-12T12:56:31.532Z,101956.00
2023-02-12T12:59:10.169Z,101952.00
2023-02-12T13:02:23.156Z,101949.00
2023-02-12T13:05:14.699Z,101951.00
2023-02-12T13:08:30.596Z,101943.00
2023-02-12T13:11:11.923Z,101943.00
2023-02-12T13:13:48.251Z,101930.00
2023-02-12T13:16:53.542Z,101930.00
2023-02-12T13:19:47.630Z,101922.00
2023-02-12T13:22:39.555Z,101892.00
2023-02-12T13:25:28.951Z,101910.00
2023-02-12T13:27:59.400Z,101903.00
2023-02-12T13:30:31.894Z,101915.00
2023-02-12T13:33:10.475Z,101899.00
2023-02-12T13:35:46.743Z,101916.00
2023-02-12T13:38:27.212Z,101919.00
2023-02-12T13:41:04.805Z,101923.00
2023-02-12T13:44:07.307Z,101921.00
2023-02-12T13:47:27.782Z,101921.00
2023-02-12T13:50:23.602Z,101921.00
2023-02-12T13:53:06.567Z,101937.00
2023-02-12T13:55:54.656Z,101939.00
2023-02-12T13:58:40.494Z,101937.00
2023-02-12T14:01:13.085Z,101936.00
2023-02-12T14:03:41.312Z,101938.00
2023-02-12T14:06:18.181Z,101942.00
2023-02-12T14:09:07.365Z,101934.00
2023-02-12T14:11:46.600Z,101928.00
2023-02-12T14:14:20.132Z,101920.00
2023-02-12T14:16:47.351Z,101927.00
2023-02-12T14:19:37.562Z,101920.00
2023-02-12T14:22:35.215Z,101920.00
2023-02-12T14:25:25.211Z,101940.00
2023-02-12T14:27:57.958Z,101935.00
2023-02-12T14:30:40.607Z,101939.00
2023-02-12T14:33:10.045Z,101939.00
2023-02-12T14:35:44.203Z,101946.00
2023-02-12T14:38:20.053Z,101941.00
2023-02-12T14:40:49.267Z,101938.00
2023-02-12T14:43:55.948Z,101939.00
2023-02-12T14:46:23.085Z,101938.00
2023-02-12T14:49:07.787Z,101939.00
2023-02-12T14:52:18.040Z,101949.00
2023-02-12T14:54:54.998Z,101938.00
2023-02-12T14:57:37.840Z,101952.00
2023-02-12T15:00:17.182Z,101948.00
2023-02-12T15:03:05.847Z,101946.00
2023-02-12T15:05:42.510Z,101948.00
2023-02-12T15:08:33.922Z,101944.00
2023-02-12T15:11:28.326Z,101928.00
2023-02-12T15:14:19.817Z,101926.00
2023-02-12T15:17:11.467Z,101912.00
2023-02-12T15:19:55.114Z,101928.00
2023-02-12T15:22:35.945Z,101879.00
2023-02-12T15:25:32.770Z,101903.00
2023-02-12T15:28:26.030Z,101913.00
2023-02-12T15:30:56.572Z,101921.00
2023-02-12T15:33:30.950Z,101915.00
2023-02-12T15:35:59.779Z,101916.00
2023-02-12T15:38:44.232Z,101916.00
2023-02-12T15:41:45.069Z,101937.00
2023-02-12T15:44:31.966Z,101909.00
2023-02-12T15:47:11.212Z,101895.00
2023-02-12T15:49:40.519Z,101885.00
2023-02-12T15:52:46.017Z,101892.00
2023-02-12T15:55:27.444Z,101900.00
2023-02-12T15:58:03.596Z,101885.00
2023-02-12T16:00:50.143Z,101888.00
2023-02-12T16:03:25.466Z,101885.00
2023-02-12T16:05:58.233Z,101891.00
2023-02-12T16:08:25.646Z,101887.00
2023-02-12T16:10:55.899Z,101883.00
2023-02-12T16:13:51.442Z,101882.00
2023-02-12T16:16:25.756Z,101895.00
2023-02-12T16:19:32.972Z,101896.00
2023-02-12T16:22:19.831Z,101863.00
2023-02-12T16:24:51.403Z,101887.00
2023-02-12T16:27:31.950Z,101891.00
2023-02-12T16:30:22.492Z,101887.00
2023-02-12T16:32:50.136Z,101890.00
2023-02-12T16:35:17.141Z,101877.00
2023-02-12T16:37:48.599Z,101870.00
2023-02-12T16:40:15.675Z,101863.00
2023-02-12T16:42:49.139Z,101871.00
2023-02-12T16:45:28.903Z,101872.00
2023-02-12T16:48:09.061Z,101865.00
2023-02-12T16:50:45.957Z,101859.00
2023-02-12T16:53:44.392Z,101870.00
2023-02-12T16:56:18.325Z,101857.00
2023-02-12T16:58:48.569Z,101865.00
2023-02-12T17:01:20.564Z,101883.00
2023-02-12T17:03:50.660Z,101875.00
2023-02-12T17:06:22.426Z,101876.00
2023-02-12T17:08:50.065Z,101874.00
2023-02-12T17:11:18.681Z,101855.00
2023-02-12T17:13:48.870Z,101882.00
2023-02-12T17:16:29.763Z,101889.00
2023-02-12T17:18:58.448Z,101889.00
2023-02-12T17:21:43.101Z,101896.00
2023-02-12T17:24:24.841Z,101890.00
2023-02-12T17:26:53.338Z,101884.00
2023-02-12T17:29:23.582Z,101885.00
2023-02-12T17:31:56.404Z,101883.00
2023-02-12T17:34:24.300Z,101883.00
2023-02-12T17:36:52.340Z,101879.00
2023-02-12T17:39:20.824Z,101885.00
2023-02-12T17:41:49.194Z,101887.00
2023-02-12T17:44:16.552Z,101812.00
2023-02-12T17:46:43.907Z,101883.00
2023-02-12T17:49:11.887Z,101886.00
2023-02-12T17:51:39.040Z,101886.00
2023-02-12T17:54:06.385Z,101882.00
2023-02-12T17:56:34.168Z,101881.00
2023-02-12T17:59:03.580Z,101884.00
2023-02-12T18:01:31.343Z,101870.00
2023-02-12T18:03:59.609Z,101876.00
2023-02-12T18:06:30.963Z,101872.00
2023-02-12T18:09:00.216Z,101872.00
2023-02-12T18:11:28.034Z,101880.00
2023-02-12T18:13:57.512Z,101871.00
2023-02-12T18:16:28.040Z,101870.00
2023-02-12T18:18:55.912Z,101872.00
2023-02-12T18:21:23.473Z,101875.00
2023-02-12T18:23:50.885Z,101871.00
2023-02-12T18:26:19.133Z,101861.00
2023-02-12T18:28:47.896Z,101873.00
2023-02-12T18:31:19.177Z,101879.00
2023-02-12T18:33:47.948Z,101874.00
2023-02-12T18:36:20.280Z,101870.00
2023-02-12T18:38:50.703Z,101875.00
2023-02-12T18:41:31.075Z,101865.00
2023-02-12T18:44:00.424Z,101873.00
2023-02-12T18:46:30.943Z,101862.00
2023-02-12T18:48:58.984Z,101875.00
2023-02-12T18:51:29.646Z,101872.00
2023-02-12T18:54:06.501Z,101864.00
2023-02-12T18:56:40.253Z,101857.00
2023-02-12T18:59:08.705Z,101862.00
2023-02-12T19:01:36.892Z,101871.00
2023-02-12T19:04:07.610Z,101862.00
2023-02-12T19:06:53.068Z,101876.00
2023-02-12T19:09:25.057Z,101878.00
2023-02-12T19:11:57.842Z,101864.00
2023-02-12T19:14:27.420Z,101857.00
2023-02-12T19:16:54.899Z,101850.00
2023-02-12T19:19:23.776Z,101870.00
2023-02-12T19:21:51.012Z,101850.00
2023-02-12T19:24:19.007Z,101860.00
2023-02-12T19:26:50.250Z,101860.00
2023-02-12T19:29:18.936Z,101855.00
2023-02-12T19:31:47.503Z,101852.00
2023-02-12T19:34:21.748Z,101851.00
2023-02-12T19:36:50.229Z,101848.00
2023-02-12T19:39:24.326Z,101824.00
2023-02-12T19:41:52.536Z,101843.00
2023-02-12T19:44:23.270Z,101843.00
2023-02-12T19:46:51.323Z,101841.00
2023-02-12T19:49:22.705Z,101839.00
2023-02-12T19:51:50.540Z,101830.00
2023-02-12T19:54:20.156Z,101837.00
2023-02-12T19:56:48.604Z,101833.00
2023-02-12T19:59:19.788Z,101819.00
2023-02-12T20:01:48.954Z,101837.00
2023-02-12T20:04:20.816Z,101826.00
2023-02-12T20:06:52.329Z,101825.00
2023-02-12T20:09:22.846Z,101824.00
2023-02-12T20:11:50.838Z,101816.00
2023-02-12T20:14:18.270Z,101824.00
2023-02-12T20:16:47.087Z,101817.00
2023-02-12T20:19:20.362Z,101833.00
2023-02-12T20:21:53.359Z,101845.00
2023-02-12T20:24:22.057Z,101830.00
2023-02-12T20:26:51.109Z,101845.00
2023-02-12T20:29:19.279Z,101842.00
2023-02-12T20:31:47.585Z,101836.00
2023-02-12T20:34:23.218Z,101824.00
2023-02-12T20:36:58.355Z,101818.00
2023-02-12T20:39:26.018Z,101827.00
2023-02-12T20:41:53.171Z,101819.00
2023-02-12T20:44:22.169Z,101825.00
2023-02-12T20:46:55.625Z,101825.00
2023-02-12T20:49:26.308Z,101826.00
2023-02-12T20:51:53.831Z,101829.00
2023-02-12T20:54:21.457Z,101806.00
2023-02-12T20:56:50.754Z,101830.00
2023-02-12T20:59:18.571Z,101825.00
2023-02-12T21:01:45.750Z,101814.00
2023-02-12T21:04:17.959Z,101831.00
2023-02-12T21:06:45.885Z,101819.00
2023-02-12T21:09:15.137Z,101826.00
2023-02-12T21:11:46.010Z,101836.00
2023-02-12T21:14:23.949Z,101833.00
2023-02-12T21:16:55.813Z,101830.00
2023-02-12T21:19:24.601Z,101833.00
2023-02-12T21:21:51.724Z,101823.00
2023-02-12T21:24:24.006Z,101836.00
2023-02-12T21:26:53.709Z,101836.00
2023-02-12T21:29:22.142Z,101842.00
2023-02-12T21:31:51.572Z,101843.00
2023-02-12T21:34:22.535Z,101844.00
2023-02-12T21:36:52.502Z,101831.00
2023-02-12T21:39:25.226Z,101837.00
2023-02-12T21:41:55.677Z,101843.00
2023-02-12T21:44:24.780Z,101837.00
2023-02-12T21:46:52.953Z,101835.00
2023-02-12T21:49:28.056Z,101840.00
2023-02-12T21:52:03.597Z,101841.00
2023-02-12T21:54:31.869Z,101835.00
2023-02-12T21:57:00.273Z,101873.00
2023-02-12T21:59:29.600Z,101838.00
2023-02-12T22:01:59.140Z,101847.00
2023-02-12T22:04:27.676Z,101836.00
2023-02-12T22:06:56.428Z,101842.00
2023-02-12T22:09:23.891Z,101845.00
2023-02-12T22:11:52.627Z,101844.00
2023-02-12T22:14:21.991Z,101842.00
2023-02-12T22:16:49.601Z,101849.00
2023-02-12T22:19:16.804Z,101847.00
2023-02-12T22:21:44.718Z,101840.00
2023-02-12T22:24:16.120Z,101842.00
2023-02-12T22:26:44.774Z,101829.00
2023-02-12T22:29:14.942Z,101834.00
2023-02-12T22:31:44.754Z,101831.00
2023-02-12T22:34:17.639Z,101837.00
2023-02-12T22:36:46.107Z,101833.00
2023-02-12T22:39:14.742Z,101829.00
2023-02-12T22:41:42.658Z,101831.00
2023-02-12T22:44:12.930Z,101837.00
2023-02-12T22:46:44.124Z,101841.00
2023-02-12T22:49:11.507Z,101836.00
2023-02-12T22:51:39.806Z,101837.00
2023-02-12T22:54:12.211Z,101839.00
2023-02-12T22:56:39.409Z,101840.00
2023-02-12T22:59:06.850Z,101833.00
2023-02-12T23:01:34.002Z,101838.00
2023-02-12T23:04:01.182Z,101837.00
2023-02-12T23:06:31.631Z,101838.00
2023-02-12T23:09:05.120Z,101816.00
2023-02-12T23:11:34.274Z,101836.00
2023-02-12T23:14:01.757Z,101825.00
2023-02-12T23:16:29.229Z,101827.00
2023-02-12T23:18:59.339Z,101827.00
2023-02-12T23:21:29.248Z,101826.00
2023-02-12T23:23:59.190Z,101825.00
2023-02-12T23:26:27.950Z,101823.00
2023-02-12T23:28:56.374Z,101825.00
2023-02-12T23:31:24.520Z,101815.00
2023-02-12T23:33:52.326Z,101814.00
2023-02-12T23:36:19.552Z,101816.00
2023-02-12T23:38:47.005Z,101821.00
2023-02-12T23:41:14.347Z,101815.00
2023-02-12T23:43:41.512Z,101821.00
2023-02-12T23:46:09.420Z,101822.00
2023-02-12T23:48:36.627Z,101811.00
2023-02-12T23:51:04.012Z,101824.00
2023-02-12T23:53:31.125Z,101816.00
2023-02-12T23:55:59.033Z,101821.00
2023-02-12T23:58:26.193Z,101816.00
